createdAt,value
2022-09-03T00:01:08.955Z,0.70
2022-09-03T00:03:51.617Z,0.80
2022-09-03T00:06:34.888Z,0.88
2022-09-03T00:09:09.247Z,0.73
2022-09-03T00:11:44.190Z,0.52
2022-09-03T00:14:19.576Z,0.93
2022-09-03T00:16:52.825Z,0.50
2022-09-03T00:19:24.985Z,0.90
2022-09-03T00:22:03.468Z,0.70
2022-09-03T00:24:36.103Z,0.80
2022-09-03T00:29:39.643Z,0.60
2022-09-03T00:32:16.980Z,0.70
2022-09-03T00:34:51.216Z,0.68
2022-09-03T00:37:18.266Z,0.90
2022-09-03T00:39:46.068Z,0.80
2022-09-03T00:42:38.871Z,1.27
2022-09-03T00:45:24.040Z,1.40
2022-09-03T00:48:04.897Z,1.23
2022-09-03T00:51:04.182Z,1.20
2022-09-03T00:54:19.743Z,1.27
2022-09-03T00:57:02.187Z,1.13
2022-09-03T00:59:52.210Z,1.40
2022-09-03T01:02:46.227Z,1.17
2022-09-03T01:05:22.905Z,0.93
2022-09-03T01:07:58.959Z,1.00
2022-09-03T01:10:32.284Z,1.02
2022-09-03T01:13:14.056Z,1.25
2022-09-03T01:16:02.360Z,1.60
2022-09-03T01:18:45.971Z,1.13
2022-09-03T01:21:34.695Z,0.98
2022-09-03T01:24:13.719Z,0.93
2022-09-03T01:27:05.664Z,0.85
2022-09-03T01:29:55.527Z,0.73
2022-09-03T01:32:35.727Z,0.95
2022-09-03T01:35:36.047Z,1.00
2022-09-03T01:38:17.017Z,0.85
2022-09-03T01:41:20.938Z,0.93
2022-09-03T01:44:10.778Z,1.08
2022-09-03T01:46:41.108Z,0.95
2022-09-03T01:49:24.682Z,0.70
2022-09-03T01:52:11.908Z,0.77
2022-09-03T01:54:51.487Z,0.85
2022-09-03T01:57:36.980Z,1.05
2022-09-03T02:00:13.709Z,1.38
2022-09-03T02:02:48.898Z,1.20
2022-09-03T02:05:24.572Z,0.98
2022-09-03T02:08:06.989Z,1.38
2022-09-03T02:10:43.104Z,1.25
2022-09-03T02:13:28.241Z,1.10
2022-09-03T02:15:59.992Z,0.85
2022-09-03T02:18:31.296Z,0.70
2022-09-03T02:20:59.306Z,0.80
2022-09-03T02:23:28.592Z,1.10
2022-09-03T02:25:58.489Z,1.02
2022-09-03T02:28:27.664Z,1.13
2022-09-03T02:30:54.974Z,1.10
2022-09-03T02:33:22.346Z,1.67
2022-09-03T02:35:49.517Z,1.13
2022-09-03T02:38:25.616Z,1.45
2022-09-03T02:40:56.496Z,1.25
2022-09-03T02:43:30.731Z,0.80
2022-09-03T02:46:03.413Z,1.17
2022-09-03T02:50:57.428Z,0.77
2022-09-03T02:53:24.633Z,0.80
2022-09-03T02:55:51.688Z,0.68
2022-09-03T02:58:18.842Z,0.80
2022-09-03T03:00:45.862Z,0.57
2022-09-03T03:03:12.869Z,0.70
2022-09-03T03:05:46.708Z,0.82
2022-09-03T03:10:44.902Z,0.90
2022-09-03T03:13:12.286Z,0.52
2022-09-03T03:15:39.760Z,0.60
2022-09-03T03:18:07.625Z,0.70
2022-09-03T03:20:34.786Z,0.60
2022-09-03T03:23:02.328Z,0.70
2022-09-03T03:25:31.485Z,0.52
2022-09-03T03:27:58.713Z,0.68
2022-09-03T03:30:25.818Z,0.60
2022-09-03T03:32:54.104Z,0.65
2022-09-03T03:35:21.760Z,0.88
2022-09-03T03:37:48.830Z,0.57
2022-09-03T03:40:16.510Z,0.50
2022-09-03T03:42:43.573Z,0.60
2022-09-03T03:45:10.762Z,0.65
2022-09-03T03:47:38.016Z,0.80
2022-09-03T03:50:05.606Z,1.00
2022-09-03T03:52:32.739Z,0.90
2022-09-03T03:54:59.745Z,0.80
2022-09-03T03:57:30.581Z,0.88
2022-09-03T03:59:57.650Z,0.52
2022-09-03T04:02:24.754Z,0.70
2022-09-03T04:04:51.767Z,1.10
2022-09-03T04:07:18.805Z,0.68
2022-09-03T04:09:45.858Z,1.02
2022-09-03T04:12:12.921Z,1.10
2022-09-03T04:14:39.948Z,0.95
2022-09-03T04:17:06.975Z,1.10
2022-09-03T04:19:33.985Z,1.20
2022-09-03T04:22:01.033Z,0.88
2022-09-03T04:24:28.577Z,1.25
2022-09-03T04:26:55.707Z,1.05
2022-09-03T04:29:22.925Z,1.10
2022-09-03T04:32:08.545Z,1.05
2022-09-03T04:34:35.666Z,1.15
2022-09-03T04:37:02.753Z,0.85
2022-09-03T04:39:29.805Z,1.13
2022-09-03T04:41:58.203Z,0.80
2022-09-03T04:44:26.737Z,0.50
2022-09-03T04:46:53.774Z,0.73
2022-09-03T04:49:20.845Z,0.68
2022-09-03T04:51:48.104Z,0.88
2022-09-03T04:54:15.256Z,0.80
2022-09-03T04:56:42.262Z,1.35
2022-09-03T04:59:09.839Z,1.45
2022-09-03T05:01:39.203Z,0.80
2022-09-03T05:04:07.961Z,0.90
2022-09-03T05:06:37.046Z,1.02
2022-09-03T05:09:05.165Z,2.25
2022-09-03T05:11:32.755Z,0.75
2022-09-03T05:14:00.755Z,0.60
2022-09-03T05:16:30.010Z,0.80
2022-09-03T05:18:59.683Z,0.73
2022-09-03T05:21:28.389Z,0.90
2022-09-03T05:23:55.741Z,0.73
2022-09-03T05:26:26.592Z,0.93
2022-09-03T05:29:07.512Z,0.70
2022-09-03T05:31:38.855Z,1.00
2022-09-03T05:34:06.816Z,0.50
2022-09-03T05:36:36.270Z,0.68
2022-09-03T05:39:07.091Z,0.50
2022-09-03T05:41:34.725Z,0.63
2022-09-03T05:44:02.166Z,0.47
2022-09-03T05:46:32.064Z,0.60
2022-09-03T05:49:04.867Z,0.52
2022-09-03T05:51:33.182Z,0.47
2022-09-03T05:54:00.299Z,0.57
2022-09-03T05:56:30.185Z,0.43
2022-09-03T05:59:01.698Z,2.78
2022-09-03T06:01:31.285Z,0.60
2022-09-03T06:04:03.747Z,0.57
2022-09-03T06:06:33.848Z,1.20
2022-09-03T06:09:03.655Z,0.60
2022-09-03T06:11:32.787Z,0.50
2022-09-03T06:14:02.191Z,0.45
2022-09-03T06:16:31.852Z,0.40
2022-09-03T06:19:00.609Z,0.45
2022-09-03T06:21:28.601Z,0.60
2022-09-03T06:23:59.580Z,0.70
2022-09-03T06:26:30.828Z,0.43
2022-09-03T06:28:58.011Z,0.50
2022-09-03T06:31:25.820Z,0.40
2022-09-03T06:33:54.566Z,0.68
2022-09-03T06:36:23.903Z,0.52
2022-09-03T06:38:55.662Z,0.40
2022-09-03T06:41:31.648Z,0.60
2022-09-03T06:44:04.243Z,0.80
2022-09-03T06:46:35.221Z,0.20
2022-09-03T06:49:02.678Z,0.45
2022-09-03T06:51:31.299Z,0.55
2022-09-03T06:54:06.922Z,0.60
2022-09-03T06:56:39.942Z,0.32
2022-09-03T06:59:12.765Z,0.40
2022-09-03T07:01:44.601Z,0.50
2022-09-03T07:04:13.972Z,0.38
2022-09-03T07:06:42.405Z,0.68
2022-09-03T07:09:11.549Z,0.45
2022-09-03T07:11:46.547Z,0.55
2022-09-03T07:14:14.234Z,0.40
2022-09-03T07:16:44.157Z,0.50
2022-09-03T07:19:13.320Z,0.40
2022-09-03T07:21:48.800Z,0.60
2022-09-03T07:24:18.228Z,0.68
2022-09-03T07:26:48.441Z,0.22
2022-09-03T07:29:19.845Z,0.80
2022-09-03T07:31:46.990Z,0.52
2022-09-03T07:34:15.020Z,0.52
2022-09-03T07:36:45.649Z,0.68
2022-09-03T07:39:14.904Z,0.55
2022-09-03T07:41:45.803Z,0.50
2022-09-03T07:44:16.077Z,0.65
2022-09-03T07:46:45.494Z,0.40
2022-09-03T07:49:13.456Z,0.30
2022-09-03T07:51:40.596Z,0.70
2022-09-03T07:54:10.670Z,0.63
2022-09-03T07:56:39.683Z,0.47
2022-09-03T07:59:07.885Z,0.45
2022-09-03T08:01:36.299Z,0.60
2022-09-03T08:04:04.772Z,0.40
2022-09-03T08:06:39.808Z,0.70
2022-09-03T08:09:11.194Z,0.50
2022-09-03T08:11:40.956Z,0.50
2022-09-03T08:14:10.201Z,0.50
2022-09-03T08:16:39.871Z,0.50
2022-09-03T08:19:07.376Z,0.70
2022-09-03T08:21:35.073Z,0.50
2022-09-03T08:24:02.926Z,0.30
2022-09-03T08:26:35.609Z,0.50
2022-09-03T08:31:30.898Z,0.60
2022-09-03T08:34:00.159Z,0.43
2022-09-03T08:36:30.036Z,0.50
2022-09-03T08:39:03.813Z,0.50
2022-09-03T08:42:08.245Z,0.50
2022-09-03T08:44:57.196Z,0.55
2022-09-03T08:47:29.870Z,0.77
2022-09-03T08:52:49.114Z,0.45
2022-09-03T08:55:29.673Z,0.52
2022-09-03T08:58:14.070Z,0.50
2022-09-03T09:01:02.980Z,0.30
2022-09-03T09:03:57.899Z,0.63
2022-09-03T09:06:36.036Z,0.52
2022-09-03T09:09:37.976Z,0.43
2022-09-03T09:12:25.317Z,0.45
2022-09-03T09:15:10.120Z,0.43
2022-09-03T09:17:40.085Z,0.60
2022-09-03T09:20:26.336Z,0.65
2022-09-03T09:23:00.584Z,0.57
2022-09-03T09:25:27.751Z,0.47
2022-09-03T09:28:03.911Z,0.47
2022-09-03T09:30:32.600Z,0.45
2022-09-03T09:33:00.746Z,0.55
2022-09-03T09:35:27.911Z,0.30
2022-09-03T09:37:57.407Z,0.40
2022-09-03T09:40:26.161Z,0.70
2022-09-03T09:43:03.868Z,0.60
2022-09-03T09:45:34.048Z,0.65
2022-09-03T09:48:03.118Z,0.50
2022-09-03T09:50:30.196Z,0.57
2022-09-03T09:53:04.169Z,0.45
2022-09-03T09:55:32.304Z,0.55
2022-09-03T09:58:14.015Z,0.50
2022-09-03T10:00:42.756Z,0.50
2022-09-03T10:03:13.530Z,0.65
2022-09-03T10:05:40.873Z,0.52
2022-09-03T10:08:21.145Z,0.70
2022-09-03T10:10:50.504Z,0.60
2022-09-03T10:13:55.566Z,0.55
2022-09-03T10:16:26.306Z,0.40
2022-09-03T10:18:53.319Z,0.50
2022-09-03T10:21:28.650Z,0.70
2022-09-03T10:24:17.307Z,0.40
2022-09-03T10:26:47.430Z,0.73
2022-09-03T10:29:21.897Z,0.65
2022-09-03T10:32:00.662Z,0.60
2022-09-03T10:34:38.621Z,0.50
2022-09-03T10:37:27.266Z,0.47
2022-09-03T10:40:13.268Z,0.70
2022-09-03T10:42:55.313Z,0.40
2022-09-03T10:45:47.478Z,0.60
2022-09-03T10:48:42.111Z,0.50
2022-09-03T10:51:20.362Z,0.60
2022-09-03T10:54:12.211Z,0.50
2022-09-03T10:56:57.510Z,0.45
2022-09-03T10:59:48.098Z,1.20
2022-09-03T11:02:45.944Z,0.80
2022-09-03T11:05:21.658Z,0.40
2022-09-03T11:08:38.057Z,0.60
2022-09-03T11:11:21.824Z,0.38
2022-09-03T11:13:58.729Z,0.47
2022-09-03T11:16:34.169Z,0.40
2022-09-03T11:19:06.201Z,0.55
2022-09-03T11:21:36.260Z,0.60
2022-09-03T11:24:23.353Z,0.60
2022-09-03T11:27:03.645Z,0.70
2022-09-03T11:29:40.916Z,0.43
2022-09-03T11:32:55.939Z,0.57
2022-09-03T11:35:31.901Z,0.65
2022-09-03T11:38:01.461Z,0.80
2022-09-03T11:40:39.357Z,0.68
2022-09-03T11:43:24.758Z,0.50
2022-09-03T11:46:06.934Z,0.63
2022-09-03T11:48:43.774Z,0.70
2022-09-03T11:51:31.904Z,0.22
2022-09-03T11:54:03.761Z,0.43
2022-09-03T11:56:32.854Z,0.50
2022-09-03T11:59:16.449Z,0.50
2022-09-03T12:01:52.440Z,0.50
2022-09-03T12:04:25.377Z,0.65
2022-09-03T12:06:55.330Z,1.00
2022-09-03T12:09:46.092Z,1.05
2022-09-03T12:12:36.106Z,0.70
2022-09-03T12:15:28.040Z,0.60
2022-09-03T12:18:16.646Z,0.40
2022-09-03T12:20:44.216Z,0.40
2022-09-03T12:23:14.504Z,0.50
2022-09-03T12:25:48.711Z,0.57
2022-09-03T12:28:25.772Z,0.50
2022-09-03T12:30:53.653Z,0.50
2022-09-03T12:33:22.916Z,0.60
2022-09-03T12:35:58.931Z,0.45
2022-09-03T12:38:29.375Z,0.52
2022-09-03T12:43:51.739Z,0.80
2022-09-03T12:46:32.024Z,0.50
2022-09-03T12:52:05.421Z,0.47
2022-09-03T12:54:37.525Z,0.40
2022-09-03T12:57:05.117Z,0.70
2022-09-03T12:59:36.858Z,1.15
2022-09-03T13:02:18.145Z,0.50
2022-09-03T13:04:46.627Z,0.52
2022-09-03T13:07:20.384Z,0.30
2022-09-03T13:09:48.513Z,1.35
2022-09-03T13:12:28.835Z,0.57
2022-09-03T13:14:57.400Z,0.50
2022-09-03T13:17:37.477Z,0.70
2022-09-03T13:20:26.212Z,0.70
2022-09-03T13:23:15.650Z,0.43
2022-09-03T13:26:14.870Z,0.43
2022-09-03T13:28:58.236Z,0.70
2022-09-03T13:31:34.130Z,0.90
2022-09-03T13:34:09.751Z,0.50
2022-09-03T13:36:46.359Z,0.50
2022-09-03T13:39:26.023Z,0.52
2022-09-03T13:42:02.331Z,0.40
2022-09-03T13:44:40.886Z,1.60
2022-09-03T13:47:34.582Z,0.65
2022-09-03T13:50:23.973Z,0.90
2022-09-03T13:53:12.264Z,0.70
2022-09-03T13:55:53.142Z,0.52
2022-09-03T13:58:36.121Z,0.60
2022-09-03T14:01:21.003Z,0.75
2022-09-03T14:03:58.760Z,0.30
2022-09-03T14:06:38.181Z,0.43
2022-09-03T14:09:20.356Z,0.80
2022-09-03T14:11:57.571Z,0.50
2022-09-03T14:14:52.765Z,0.55
2022-09-03T14:17:44.889Z,0.70
2022-09-03T14:20:22.172Z,0.67
2022-09-03T14:23:17.575Z,0.85
2022-09-03T14:25:59.403Z,0.43
2022-09-03T14:28:36.967Z,0.70
2022-09-03T14:31:16.709Z,0.30
2022-09-03T14:34:02.377Z,0.47
2022-09-03T14:36:49.980Z,0.63
2022-09-03T14:39:32.689Z,0.75
2022-09-03T14:42:25.972Z,0.57
2022-09-03T14:45:38.164Z,0.50
2022-09-03T14:48:41.469Z,0.47
2022-09-03T14:51:32.016Z,0.40
2022-09-03T14:54:17.169Z,0.70
2022-09-03T14:57:00.368Z,0.40
2022-09-03T15:00:01.250Z,0.68
2022-09-03T15:02:40.428Z,0.40
2022-09-03T15:05:44.599Z,0.50
2022-09-03T15:08:41.081Z,0.43
2022-09-03T15:11:26.374Z,0.50
2022-09-03T15:14:19.051Z,0.60
2022-09-03T15:17:05.076Z,0.68
2022-09-03T15:19:54.217Z,0.40
2022-09-03T15:22:49.917Z,0.60
2022-09-03T15:25:38.393Z,0.55
2022-09-03T15:28:17.457Z,0.70
2022-09-03T15:31:10.618Z,0.43
2022-09-03T15:33:58.259Z,0.70
2022-09-03T15:36:36.153Z,0.80
2022-09-03T15:39:23.275Z,0.43
2022-09-03T15:41:57.413Z,0.50
2022-09-03T15:44:28.171Z,0.57
2022-09-03T15:47:52.178Z,0.60
2022-09-03T15:50:54.843Z,0.50
2022-09-03T15:53:37.867Z,0.80
2022-09-03T15:56:18.390Z,0.80
2022-09-03T15:58:52.834Z,0.57
2022-09-03T16:01:51.053Z,0.45
2022-09-03T16:04:50.561Z,0.57
2022-09-03T16:07:34.272Z,0.52
2022-09-03T16:10:24.257Z,0.70
2022-09-03T16:13:18.877Z,0.60
2022-09-03T16:15:58.550Z,1.02
2022-09-03T16:18:32.374Z,0.70
2022-09-03T16:21:25.777Z,0.50
2022-09-03T16:24:02.213Z,0.88
2022-09-03T16:26:36.170Z,1.15
2022-09-03T16:29:11.579Z,0.65
2022-09-03T16:32:01.681Z,0.55
2022-09-03T16:34:50.046Z,0.50
2022-09-03T16:37:34.619Z,0.90
2022-09-03T16:40:33.483Z,0.73
2022-09-03T16:43:41.700Z,0.50
2022-09-03T16:46:25.885Z,0.70
2022-09-03T16:49:14.378Z,0.68
2022-09-03T16:51:48.137Z,0.60
2022-09-03T16:54:38.213Z,0.68
2022-09-03T16:57:26.248Z,0.77
2022-09-03T17:00:14.560Z,0.70
2022-09-03T17:03:26.056Z,0.32
2022-09-03T17:06:01.673Z,0.60
2022-09-03T17:08:40.835Z,0.60
2022-09-03T17:11:19.828Z,0.52
2022-09-03T17:14:34.065Z,0.65
2022-09-03T17:17:19.149Z,0.50
2022-09-03T17:20:06.456Z,0.63
2022-09-03T17:22:51.329Z,0.45
2022-09-03T17:25:35.694Z,0.60
2022-09-03T17:28:33.446Z,0.50
2022-09-03T17:31:22.183Z,0.90
2022-09-03T17:34:02.404Z,0.50
2022-09-03T17:36:31.283Z,0.70
2022-09-03T17:39:24.679Z,0.70
2022-09-03T17:41:57.593Z,1.38
2022-09-03T17:44:33.620Z,0.68
2022-09-03T17:47:32.793Z,0.70
2022-09-03T17:50:17.464Z,0.70
2022-09-03T17:52:55.415Z,0.82
2022-09-03T17:55:36.325Z,0.85
2022-09-03T17:58:15.490Z,1.00
2022-09-03T18:01:21.547Z,0.88
2022-09-03T18:03:54.427Z,0.90
2022-09-03T18:06:35.222Z,0.98
2022-09-03T18:09:45.886Z,0.82
2022-09-03T18:12:33.572Z,0.90
2022-09-03T18:15:25.513Z,0.98
2022-09-03T18:18:01.502Z,1.10
2022-09-03T18:21:21.145Z,0.70
2022-09-03T18:24:02.365Z,0.82
2022-09-03T18:26:53.723Z,0.70
2022-09-03T18:29:58.244Z,0.80
2022-09-03T18:32:43.937Z,0.90
2022-09-03T18:35:30.216Z,0.75
2022-09-03T18:38:16.372Z,0.90
2022-09-03T18:41:11.173Z,1.02
2022-09-03T18:44:16.739Z,1.10
2022-09-03T18:50:53.533Z,0.90
2022-09-03T18:53:54.226Z,1.52
2022-09-03T18:56:46.662Z,1.10
2022-09-03T19:00:05.942Z,1.05
2022-09-03T19:03:05.811Z,1.00
2022-09-03T19:05:57.455Z,1.20
2022-09-03T19:09:13.893Z,1.00
2022-09-03T19:12:06.955Z,1.20
2022-09-03T19:15:19.208Z,1.17
2022-09-03T19:18:27.935Z,1.23
2022-09-03T19:21:16.662Z,1.55
2022-09-03T19:24:02.022Z,1.35
2022-09-03T19:26:58.458Z,1.65
2022-09-03T19:30:03.089Z,2.08
2022-09-03T19:33:08.787Z,1.30
2022-09-03T19:36:34.813Z,1.25
2022-09-03T19:40:00.703Z,1.07
2022-09-03T19:43:20.497Z,0.90
2022-09-03T19:46:37.449Z,1.50
2022-09-03T19:49:50.006Z,1.30
2022-09-03T19:53:06.192Z,1.50
2022-09-03T19:56:06.597Z,1.30
2022-09-03T19:58:56.986Z,1.60
2022-09-03T20:01:52.050Z,1.70
2022-09-03T20:04:41.888Z,2.42
2022-09-03T20:07:28.476Z,1.90
2022-09-03T20:10:17.888Z,1.98
2022-09-03T20:12:50.515Z,2.22
2022-09-03T20:18:13.097Z,2.65
2022-09-03T20:20:40.036Z,1.80
2022-09-03T20:23:21.497Z,1.65
2022-09-03T20:26:15.595Z,1.92
2022-09-03T20:28:59.161Z,1.45
2022-09-03T20:31:40.196Z,1.70
2022-09-03T20:34:42.869Z,1.52
2022-09-03T20:37:31.158Z,1.20
2022-09-03T20:40:28.763Z,1.35
2022-09-03T20:43:24.957Z,1.40
2022-09-03T20:46:10.365Z,1.70
2022-09-03T20:48:56.121Z,1.50
2022-09-03T20:51:34.414Z,1.35
2022-09-03T20:54:31.882Z,1.70
2022-09-03T20:57:21.393Z,1.38
2022-09-03T21:00:00.391Z,1.08
2022-09-03T21:03:00.663Z,1.30
2022-09-03T21:06:06.628Z,1.27
2022-09-03T21:09:00.913Z,1.02
2022-09-03T21:11:40.224Z,1.75
2022-09-03T21:14:28.642Z,1.55
2022-09-03T21:17:28.784Z,1.40
2022-09-03T21:20:10.194Z,1.60
2022-09-03T21:23:13.945Z,1.40
2022-09-03T21:25:49.240Z,1.38
2022-09-03T21:28:49.426Z,1.30
2022-09-03T21:31:28.864Z,1.13
2022-09-03T21:34:01.507Z,1.23
2022-09-03T21:39:13.320Z,1.25
2022-09-03T21:41:48.044Z,1.58
2022-09-03T21:44:40.619Z,1.38
2022-09-03T21:47:15.919Z,1.40
2022-09-03T21:50:18.024Z,1.33
2022-09-03T21:53:14.315Z,1.38
2022-09-03T21:55:53.433Z,1.48
2022-09-03T21:58:44.556Z,1.17
2022-09-03T22:01:17.338Z,1.73
2022-09-03T22:03:44.376Z,1.48
2022-09-03T22:06:25.726Z,1.30
2022-09-03T22:09:07.766Z,1.80
2022-09-03T22:11:57.537Z,1.50
2022-09-03T22:14:28.131Z,1.85
2022-09-03T22:17:16.863Z,1.85
2022-09-03T22:19:44.229Z,1.55
2022-09-03T22:22:43.808Z,1.38
2022-09-03T22:25:24.859Z,1.70
2022-09-03T22:28:31.087Z,1.50
2022-09-03T22:31:22.540Z,1.58
2022-09-03T22:34:11.333Z,1.80
2022-09-03T22:36:41.692Z,1.75
2022-09-03T22:39:33.233Z,1.52
2022-09-03T22:42:21.938Z,1.35
2022-09-03T22:44:57.955Z,1.10
2022-09-03T22:47:39.493Z,1.92
2022-09-03T22:50:26.782Z,1.60
2022-09-03T22:53:15.772Z,1.63
2022-09-03T22:55:53.464Z,1.73
2022-09-03T22:58:29.286Z,1.70
2022-09-03T23:01:07.106Z,1.38
2022-09-03T23:04:19.436Z,1.42
2022-09-03T23:06:53.253Z,1.30
2022-09-03T23:09:25.407Z,1.33
2022-09-03T23:12:00.604Z,1.10
2022-09-03T23:14:34.343Z,1.42
2022-09-03T23:17:13.411Z,1.42
2022-09-03T23:19:56.822Z,1.20
2022-09-03T23:22:35.138Z,1.50
2022-09-03T23:25:10.696Z,1.10
2022-09-03T23:27:56.365Z,1.48
2022-09-03T23:30:23.385Z,1.00
2022-09-03T23:32:57.926Z,1.02
2022-09-03T23:35:33.928Z,1.40
2022-09-03T23:38:36.229Z,1.17
2022-09-03T23:41:08.012Z,0.80
2022-09-03T23:44:00.195Z,1.40
2022-09-03T23:46:38.285Z,1.10
2022-09-03T23:49:36.753Z,1.13
2022-09-03T23:52:28.509Z,1.10
2022-09-03T23:55:01.568Z,1.50
2022-09-03T23:57:39.757Z,1.20
